Time;durP1;ratioP1;P1;durP2;ratioP2;P2;SDS_P1;SDS_P2;PMS_P1;PMS_P2;Temp;Humidity;BMP_temperature;BMP_pressure;BME280_temperature;BME280_humidity;BME280_pressure;Samples;Min_cycle;Max_cycle;Signal;HPM_P1;HPM_P2
2023/06/18 08:23:59;;;;;;;;;;;;;;;6.68;100.00;99312.06;6156671;23;19923;-81
2023/06/18 08:26:24;;;;;;;;;;;;;;;6.68;100.00;99317.34;6156508;23;19921;-80
2023/06/18 08:28:50;;;;;;;;;;;;;;;6.67;100.00;99310.38;6156334;23;19948;-80
2023/06/18 08:31:15;;;;;;;;;;;;;;;6.63;100.00;99308.75;6156413;23;19963;-80
2023/06/18 08:33:40;;;;;;;;;;;;;;;6.67;100.00;99307.75;6156371;23;19912;-80
2023/06/18 08:36:06;;;;;;;;;;;;;;;6.69;100.00;99312.97;6154688;23;19967;-81
2023/06/18 08:38:31;;;;;;;;;;;;;;;6.72;100.00;99310.22;6156317;23;19921;-81
2023/06/18 08:41:01;;;;;;;;;;;;;;;6.71;100.00;99306.69;6130010;23;19923;-80
2023/06/18 08:43:31;;;;;;;;;;;;;;;6.75;100.00;99301.34;6130046;23;19923;-80
2023/06/18 08:45:59;;;;;;;;;;;;;;;6.71;100.00;99296.16;6129994;23;19913;-80
2023/06/18 08:48:26;;;;;;;;;;;;;;;6.81;100.00;99298.50;6129985;23;19991;-80
2023/06/18 08:50:56;;;;;;;;;;;;;;;6.73;100.00;99299.63;6154529;23;19931;-80
2023/06/18 08:53:25;;;;;;;;;;;;;;;6.78;100.00;99290.69;6156234;23;19968;-80
2023/06/18 08:55:51;;;;;;;;;;;;;;;6.76;100.00;99292.53;6155745;23;19917;-80
2023/06/18 08:58:20;;;;;;;;;;;;;;;6.82;100.00;99297.59;6156254;23;19955;-80
2023/06/18 09:00:48;;;;;;;;;;;;;;;6.80;100.00;99292.38;6156294;23;19913;-80
2023/06/18 09:03:14;;;;;;;;;;;;;;;6.77;100.00;99289.00;6156249;23;19970;-80
2023/06/18 09:05:40;;;;;;;;;;;;;;;6.79;100.00;99297.69;6154269;23;20023;-80
2023/06/18 09:08:05;;;;;;;;;;;;;;;6.87;100.00;99279.84;6155899;23;19917;-80
2023/06/18 09:10:30;;;;;;;;;;;;;;;6.82;100.00;99277.38;6156282;23;19971;-80
2023/06/18 09:12:56;;;;;;;;;;;;;;;6.84;100.00;99275.53;6155925;23;20232;-80
2023/06/18 09:15:24;;;;;;;;;;;;;;;6.86;100.00;99270.22;6155959;23;19962;-80
2023/06/18 09:17:53;;;;;;;;;;;;;;;6.84;100.00;99277.31;6129628;23;19923;-80
2023/06/18 09:20:19;;;;;;;;;;;;;;;6.90;100.00;99270.03;6155862;23;19991;-80
2023/06/18 09:22:45;;;;;;;;;;;;;;;6.85;100.00;99272.00;6169178;23;19924;-80
2023/06/18 09:25:11;;;;;;;;;;;;;;;6.84;100.00;99267.63;6185645;23;19999;-80
2023/06/18 09:27:38;;;;;;;;;;;;;;;6.85;100.00;99272.00;6185660;23;19939;-80
2023/06/18 09:30:06;;;;;;;;;;;;;;;6.82;100.00;99261.56;6185456;23;20396;-80
2023/06/18 09:32:44;;;;;;;;;;;;;;;6.89;100.00;99262.19;6185528;23;20265;-81
2023/06/18 09:35:13;;;;;;;;;;;;;;;6.89;100.00;99256.94;6185875;23;19908;-80
2023/06/18 09:37:39;;;;;;;;;;;;;;;6.86;100.00;99254.41;6157530;23;19912;-85
2023/06/18 09:40:13;;;;;;;;;;;;;;;6.92;100.00;99251.56;6185250;23;20347;-82
2023/06/18 09:42:39;;;;;;;;;;;;;;;6.89;100.00;99252.53;6185397;23;19999;-83
2023/06/18 09:45:04;;;;;;;;;;;;;;;6.88;100.00;99245.53;6158790;23;19912;-83
2023/06/18 09:47:29;;;;;;;;;;;;;;;6.79;100.00;99253.78;6185435;23;20280;-81
2023/06/18 12:33:26;;;;;;;;;;;;;;;6.70;100.00;99102.28;6183596;23;19987;-80
2023/06/18 12:35:56;;;;;;;;;;;;;;;6.70;100.00;99110.16;6186103;23;19920;-80
2023/06/18 12:38:22;;;;;;;;;;;;;;;6.71;100.00;99106.59;6186150;23;19923;-80
2023/06/18 12:40:52;;;;;;;;;;;;;;;6.62;100.00;99114.00;6159746;23;19913;-79
2023/06/18 12:43:18;;;;;;;;;;;;;;;6.61;100.00;99115.78;6186022;23;20335;-80
2023/06/18 12:45:50;;;;;;;;;;;;;;;6.65;100.00;99111.25;6184395;23;19918;-80
2023/06/18 12:48:17;;;;;;;;;;;;;;;6.63;100.00;99108.66;6186040;23;20328;-80
2023/06/18 12:50:46;;;;;;;;;;;;;;;6.68;100.00;99114.59;6186205;23;19921;-79
2023/06/18 12:53:13;;;;;;;;;;;;;;;6.64;100.00;99115.66;6186359;23;19916;-79
2023/06/18 12:55:38;;;;;;;;;;;;;;;6.66;100.00;99112.97;6186111;23;19981;-79
2023/06/18 12:58:13;;;;;;;;;;;;;;;6.75;100.00;99119.66;6176484;23;19912;-80
2023/06/18 13:00:39;;;;;;;;;;;;;;;6.83;100.00;99120.22;6184425;23;19916;-81
2023/06/18 13:03:05;;;;;;;;;;;;;;;6.93;100.00;99116.31;6185921;23;19918;-80
2023/06/18 13:05:30;;;;;;;;;;;;;;;6.89;100.00;99122.63;6185794;23;19970;-80
2023/06/18 13:07:56;;;;;;;;;;;;;;;6.96;100.00;99120.63;6185741;23;19920;-79
2023/06/18 13:10:21;;;;;;;;;;;;;;;6.87;100.00;99106.88;6159277;23;20240;-80
2023/06/18 13:12:47;;;;;;;;;;;;;;;6.95;100.00;99106.59;6159219;23;19920;-80
2023/06/18 13:15:13;;;;;;;;;;;;;;;6.96;100.00;99113.56;6184245;23;19912;-79
2023/06/18 13:17:38;;;;;;;;;;;;;;;6.97;100.00;99115.28;6185727;23;19919;-80
2023/06/18 13:20:04;;;;;;;;;;;;;;;6.95;100.00;99109.22;6175093;23;19912;-79
2023/06/18 13:22:30;;;;;;;;;;;;;;;7.00;100.00;99104.63;6185690;23;19919;-80
2023/06/18 13:24:57;;;;;;;;;;;;;;;7.02;100.00;99112.47;6159056;23;19912;-80
2023/06/18 13:27:23;;;;;;;;;;;;;;;7.02;100.00;99110.72;6159278;23;19912;-80
2023/06/18 13:29:48;;;;;;;;;;;;;;;7.02;100.00;99105.44;6183962;23;20447;-80
2023/06/18 13:32:13;;;;;;;;;;;;;;;7.02;100.00;99107.19;6185305;23;20420;-81
2023/06/18 13:34:38;;;;;;;;;;;;;;;7.03;100.00;99111.56;6159103;23;20320;-84
2023/06/18 13:37:03;;;;;;;;;;;;;;;6.98;100.00;99108.25;6159007;23;20236;-80
2023/06/18 13:39:29;;;;;;;;;;;;;;;7.02;100.00;99104.56;6158968;23;19946;-80
2023/06/18 13:41:54;;;;;;;;;;;;;;;7.03;100.00;99104.50;6159229;23;19912;-81
2023/06/18 13:44:20;;;;;;;;;;;;;;;7.04;100.00;99103.59;6185373;23;19946;-81
2023/06/18 13:46:45;;;;;;;;;;;;;;;7.02;100.00;99113.34;6174478;23;19967;-79
2023/06/18 13:49:11;;;;;;;;;;;;;;;7.00;100.00;99107.25;6149899;23;19919;-80
2023/06/18 13:51:36;;;;;;;;;;;;;;;7.06;100.00;99106.16;6185378;23;19913;-80
2023/06/18 13:54:02;;;;;;;;;;;;;;;7.07;100.00;99102.63;6158694;23;19916;-79
2023/06/18 13:56:29;;;;;;;;;;;;;;;7.03;100.00;99108.91;6185189;23;19913;-80
2023/06/18 13:58:54;;;;;;;;;;;;;;;7.08;100.00;99102.56;6158854;23;19916;-80
2023/06/18 14:01:19;;;;;;;;;;;;;;;7.06;100.00;99106.16;6183557;23;20392;-80
2023/06/18 14:03:45;;;;;;;;;;;;;;;7.07;100.00;99097.34;6149854;23;19912;-83
2023/06/18 14:06:10;;;;;;;;;;;;;;;7.06;100.00;99104.38;6159104;23;19917;-80
2023/06/18 14:08:40;;;;;;;;;;;;;;;7.09;100.00;99101.63;6158692;23;19916;-80
2023/06/18 14:11:05;;;;;;;;;;;;;;;7.11;100.00;99098.09;6158680;23;19967;-80
2023/06/18 14:13:31;;;;;;;;;;;;;;;7.10;100.00;99107.78;6158945;23;19943;-79
2023/06/18 14:15:56;;;;;;;;;;;;;;;7.10;100.00;99099.88;6183568;23;20217;-80
2023/06/18 14:18:22;;;;;;;;;;;;;;;7.09;100.00;99106.06;6158815;23;19995;-79
2023/06/18 14:20:47;;;;;;;;;;;;;;;7.15;100.00;99104.94;6158470;23;19912;-80
2023/06/18 14:23:13;;;;;;;;;;;;;;;7.11;100.00;99103.34;6185111;23;19919;-80
2023/06/18 14:25:38;;;;;;;;;;;;;;;7.16;100.00;99101.38;6175717;23;20161;-80
2023/06/18 14:28:04;;;;;;;;;;;;;;;7.16;100.00;99107.50;6158598;23;20248;-80
2023/06/18 14:30:30;;;;;;;;;;;;;;;7.15;100.00;99112.84;6157527;23;19920;-80
2023/06/18 14:32:55;;;;;;;;;;;;;;;7.10;100.00;99107.78;6149354;23;19917;-80
2023/06/18 14:35:20;;;;;;;;;;;;;;;7.12;100.00;99110.34;6158738;23;19916;-80
2023/06/18 14:37:45;;;;;;;;;;;;;;;7.14;100.00;99106.72;6158829;23;19943;-79
2023/06/18 14:40:11;;;;;;;;;;;;;;;7.15;100.00;99110.19;6184748;23;19939;-79
2023/06/18 14:42:36;;;;;;;;;;;;;;;7.14;100.00;99112.00;6185207;23;19912;-79
2023/06/18 14:45:02;;;;;;;;;;;;;;;7.18;100.00;99110.09;6183206;23;19962;-80
2023/06/18 14:47:27;;;;;;;;;;;;;;;7.18;100.00;99110.09;6158460;23;19970;-80
2023/06/18 14:49:56;;;;;;;;;;;;;;;7.16;100.00;99119.84;6184820;23;20339;-79
2023/06/18 14:52:22;;;;;;;;;;;;;;;7.15;100.00;99115.47;6158461;23;19912;-80
2023/06/18 14:54:47;;;;;;;;;;;;;;;7.18;100.00;99115.34;6158008;23;19979;-80
2023/06/18 14:57:12;;;;;;;;;;;;;;;7.18;100.00;99108.31;6158444;23;19909;-79
2023/06/18 14:59:38;;;;;;;;;;;;;;;7.16;100.00;99115.41;6149322;23;20347;-81
2023/06/18 15:02:04;;;;;;;;;;;;;;;7.19;100.00;99122.34;6156973;23;19970;-80
2023/06/18 15:04:29;;;;;;;;;;;;;;;7.21;100.00;99121.38;6158371;23;19920;-80
2023/06/18 15:06:54;;;;;;;;;;;;;;;7.23;100.00;99123.97;6158293;23;19923;-80
2023/06/18 15:09:20;;;;;;;;;;;;;;;7.21;100.00;99126.66;6184490;23;19936;-80
2023/06/18 15:11:45;;;;;;;;;;;;;;;7.23;100.00;99129.22;6185010;23;20240;-80
2023/06/18 15:14:10;;;;;;;;;;;;;;;7.20;100.00;99129.34;6184604;23;20290;-80
2023/06/18 15:16:36;;;;;;;;;;;;;;;7.23;100.00;99131.88;6156736;23;19924;-80
2023/06/18 15:19:01;;;;;;;;;;;;;;;7.24;100.00;99133.56;6149388;23;20339;-80
2023/06/18 15:21:26;;;;;;;;;;;;;;;7.22;100.00;99127.50;6184580;23;19957;-80
2023/06/18 15:23:51;;;;;;;;;;;;;;;7.25;100.00;99133.50;6184469;23;19998;-79
2023/06/18 15:26:20;;;;;;;;;;;;;;;7.22;100.00;99122.22;6185275;23;19920;-80
2023/06/18 15:28:46;;;;;;;;;;;;;;;7.27;100.00;99122.91;6150940;23;19935;-80
2023/06/18 15:31:11;;;;;;;;;;;;;;;7.23;100.00;99129.22;6183252;23;20316;-80
2023/06/18 15:33:36;;;;;;;;;;;;;;;7.16;100.00;99130.38;6184429;23;19920;-80
2023/06/18 15:36:02;;;;;;;;;;;;;;;7.20;100.00;99129.34;6184521;23;19912;-80
2023/06/18 15:38:27;;;;;;;;;;;;;;;7.23;100.00;99132.72;6184518;23;20284;-81
2023/06/18 15:40:52;;;;;;;;;;;;;;;7.17;100.00;99121.56;6158082;23;19912;-81
2023/06/18 15:43:18;;;;;;;;;;;;;;;7.19;100.00;99128.47;6184673;23;20288;-80
2023/06/18 15:45:43;;;;;;;;;;;;;;;7.25;100.00;99130.88;6182882;23;19912;-82
2023/06/18 15:48:12;;;;;;;;;;;;;;;7.22;100.00;99138.88;6184883;23;19959;-81
2023/06/18 15:50:38;;;;;;;;;;;;;;;7.21;100.00;99128.41;6184590;23;19923;-82
2023/06/18 15:53:03;;;;;;;;;;;;;;;7.21;100.00;99137.19;6157996;23;19912;-81
2023/06/18 15:55:28;;;;;;;;;;;;;;;7.22;100.00;99135.41;6184526;23;19916;-81
2023/06/18 15:57:53;;;;;;;;;;;;;;;7.22;100.00;99130.13;6184660;23;19955;-81
2023/06/18 16:00:19;;;;;;;;;;;;;;;7.23;100.00;99129.22;6182894;23;19917;-81
2023/06/18 16:02:44;;;;;;;;;;;;;;;7.22;100.00;99127.50;6184806;23;19912;-81
2023/06/18 16:05:09;;;;;;;;;;;;;;;7.22;100.00;99123.09;6185392;23;19916;-81
2023/06/18 16:07:34;;;;;;;;;;;;;;;7.28;100.00;99122.00;6186318;23;19913;-81
2023/06/18 16:10:00;;;;;;;;;;;;;;;7.24;100.00;99120.38;6186103;23;19962;-81
2023/06/18 16:12:25;;;;;;;;;;;;;;;7.23;100.00;99116.91;6186267;23;19987;-81
2023/06/18 16:14:51;;;;;;;;;;;;;;;7.30;100.00;99114.03;6158365;23;19920;-83
2023/06/18 16:17:16;;;;;;;;;;;;;;;7.27;100.00;99104.44;6159884;23;19916;-81
2023/06/18 16:19:42;;;;;;;;;;;;;;;7.31;100.00;99097.28;6159942;23;20320;-80
2023/06/18 16:22:07;;;;;;;;;;;;;;;7.30;100.00;99090.31;6150537;23;19947;-81
2023/06/18 16:24:32;;;;;;;;;;;;;;;7.32;100.00;99091.09;6186109;23;20340;-81
2023/06/18 16:26:59;;;;;;;;;;;;;;;7.36;100.00;99088.28;6159746;23;19991;-81
2023/06/18 16:29:25;;;;;;;;;;;;;;;7.33;100.00;99082.28;6160007;23;19962;-83
2023/06/18 16:31:50;;;;;;;;;;;;;;;7.30;100.00;99077.97;6184858;23;19920;-82
2023/06/18 16:34:15;;;;;;;;;;;;;;;7.32;100.00;99075.28;6159558;23;19948;-81
2023/06/18 16:36:41;;;;;;;;;;;;;;;7.34;100.00;99073.44;6186114;23;19920;-81
2023/06/18 16:39:06;;;;;;;;;;;;;;;7.30;100.00;99071.84;6159900;23;19947;-84
2023/06/18 16:41:32;;;;;;;;;;;;;;;7.29;100.00;99070.97;6159642;23;19916;-83
2023/06/18 16:43:57;;;;;;;;;;;;;;;7.35;100.00;99070.72;6150649;23;19920;-81
2023/06/18 16:46:22;;;;;;;;;;;;;;;7.31;100.00;99066.53;6158344;23;20265;-81
2023/06/18 16:48:48;;;;;;;;;;;;;;;7.27;100.00;99064.94;6158547;23;19919;-81
2023/06/18 16:51:14;;;;;;;;;;;;;;;7.32;100.00;99057.69;6157622;23;19912;-78
2023/06/18 16:53:39;;;;;;;;;;;;;;;7.35;100.00;99060.19;6158266;23;19916;-81
2023/06/18 16:56:05;;;;;;;;;;;;;;;7.31;100.00;99056.00;6149935;23;20307;-81
2023/06/18 16:58:30;;;;;;;;;;;;;;;7.30;100.00;99059.53;6184853;23;19919;-81
2023/06/18 17:00:55;;;;;;;;;;;;;;;7.30;100.00;99051.63;6183456;23;19999;-81
2023/06/18 17:03:21;;;;;;;;;;;;;;;7.30;100.00;99056.03;6184070;23;19975;-81
2023/06/18 17:05:46;;;;;;;;;;;;;;;7.30;100.00;99050.78;6158245;23;19936;-81
2023/06/18 17:08:11;;;;;;;;;;;;;;;7.29;100.00;99049.91;6184365;23;19947;-80
2023/06/18 17:10:37;;;;;;;;;;;;;;;7.30;100.00;99043.72;6183726;23;19912;-81
2023/06/18 17:13:02;;;;;;;;;;;;;;;7.37;100.00;99028.50;6159077;23;19912;-82
2023/06/18 17:15:27;;;;;;;;;;;;;;;7.34;100.00;99032.16;6184332;23;19923;-81
2023/06/18 17:17:52;;;;;;;;;;;;;;;7.32;100.00;99036.59;6159177;23;20371;-81
2023/06/18 17:20:18;;;;;;;;;;;;;;;7.37;100.00;99036.41;6159109;23;19912;-81
2023/06/18 17:22:43;;;;;;;;;;;;;;;7.35;100.00;99049.66;6159286;23;19965;-82
2023/06/18 17:25:08;;;;;;;;;;;;;;;7.34;100.00;99042.69;6159199;23;19954;-82
2023/06/18 17:27:34;;;;;;;;;;;;;;;7.39;100.00;99029.31;6185748;23;20245;-81
2023/06/18 17:29:59;;;;;;;;;;;;;;;7.41;100.00;99030.94;6157614;23;19998;-82
2023/06/18 17:32:25;;;;;;;;;;;;;;;7.39;100.00;99034.59;6159183;23;19921;-82
2023/06/18 17:34:50;;;;;;;;;;;;;;;7.41;100.00;99038.00;6185625;23;19912;-81
2023/06/18 17:37:15;;;;;;;;;;;;;;;7.40;100.00;99036.28;6158924;23;19918;-80
2023/06/18 17:39:41;;;;;;;;;;;;;;;7.37;100.00;99025.88;6158943;23;20226;-82
2023/06/18 17:42:06;;;;;;;;;;;;;;;7.41;100.00;99041.50;6158547;23;19916;-82
2023/06/18 17:44:31;;;;;;;;;;;;;;;7.43;100.00;99037.00;6150000;23;20014;-81
2023/06/18 17:46:56;;;;;;;;;;;;;;;7.39;100.00;99043.34;6174516;23;19932;-81
2023/06/18 17:49:24;;;;;;;;;;;;;;;7.37;100.00;99047.84;6158170;23;19916;-81
2023/06/18 17:51:49;;;;;;;;;;;;;;;7.38;100.00;99054.78;6157950;23;19917;-81
2023/06/18 17:54:15;;;;;;;;;;;;;;;7.38;100.00;99049.53;6158645;23;19912;-81
2023/06/18 17:56:41;;;;;;;;;;;;;;;7.39;100.00;99051.25;6184560;23;19962;-81
2023/06/18 17:59:06;;;;;;;;;;;;;;;7.40;100.00;99052.97;6158973;23;19912;-81
2023/06/18 18:01:31;;;;;;;;;;;;;;;7.39;100.00;99050.41;6183223;23;20321;-81
2023/06/18 18:03:57;;;;;;;;;;;;;;;7.42;100.00;99048.50;6158878;23;19919;-81
2023/06/18 18:06:22;;;;;;;;;;;;;;;7.41;100.00;99048.56;6185101;23;19919;-81
2023/06/18 18:08:51;;;;;;;;;;;;;;;7.41;100.00;99053.81;6158804;23;19970;-82
2023/06/18 18:11:19;;;;;;;;;;;;;;;7.39;100.00;99060.94;6185104;23;19913;-81
2023/06/18 18:13:45;;;;;;;;;;;;;;;7.38;100.00;99054.78;6158804;23;19950;-81
2023/06/18 18:16:10;;;;;;;;;;;;;;;7.44;100.00;99059.81;6183988;23;19912;-81
2023/06/18 18:18:35;;;;;;;;;;;;;;;7.42;100.00;99056.41;6185100;23;19912;-81
2023/06/18 18:21:01;;;;;;;;;;;;;;;7.40;100.00;99063.53;6158593;23;19916;-81
2023/06/18 18:23:26;;;;;;;;;;;;;;;7.41;100.00;99056.47;6184889;23;19940;-81
2023/06/18 18:25:51;;;;;;;;;;;;;;;7.43;100.00;99046.69;6158292;23;19916;-81
2023/06/18 18:28:17;;;;;;;;;;;;;;;7.43;100.00;99044.91;6158018;23;20351;-82
2023/06/18 18:30:43;;;;;;;;;;;;;;;8.62;100.00;99045.03;6183457;23;19975;-82
2023/06/18 18:33:09;;;;;;;;;;;;;;;7.97;100.00;99053.16;6158336;23;19916;-82
2023/06/18 18:35:34;;;;;;;;;;;;;;;7.78;100.00;99053.09;6157341;23;19919;-83
2023/06/18 18:38:00;;;;;;;;;;;;;;;7.74;100.00;99051.53;6184206;23;20412;-82
2023/06/18 18:40:25;;;;;;;;;;;;;;;7.72;100.00;99048.13;6184859;23;20314;-82
2023/06/18 18:42:50;;;;;;;;;;;;;;;7.70;100.00;99049.09;6158592;23;20336;-82
2023/06/18 18:45:16;;;;;;;;;;;;;;;7.70;100.00;99047.31;6183231;23;19912;-83
2023/06/18 18:47:41;;;;;;;;;;;;;;;7.67;100.00;99054.50;6158538;23;19920;-83
2023/06/18 18:50:07;;;;;;;;;;;;;;;7.69;100.00;99048.25;6158562;23;19912;-82
2023/06/18 18:52:32;;;;;;;;;;;;;;;7.64;100.00;99050.22;6158428;23;19916;-82
2023/06/18 18:54:57;;;;;;;;;;;;;;;7.69;100.00;99048.25;6184391;23;19913;-82
2023/06/18 18:57:23;;;;;;;;;;;;;;;7.66;100.00;99044.88;6184706;23;20316;-82
2023/06/18 18:59:48;;;;;;;;;;;;;;;7.62;100.00;99057.34;6183648;23;20276;-82
2023/06/18 19:02:14;;;;;;;;;;;;;;;7.61;100.00;99050.34;6158266;23;19955;-82
2023/06/18 19:04:39;;;;;;;;;;;;;;;7.67;100.00;99058.00;6185269;23;19944;-83
2023/06/18 19:07:05;;;;;;;;;;;;;;;7.62;100.00;99044.16;6184724;23;19912;-82
2023/06/18 19:09:30;;;;;;;;;;;;;;;7.66;100.00;99037.84;6184551;23;19917;-82
2023/06/18 19:11:55;;;;;;;;;;;;;;;7.62;100.00;99030.97;6184700;23;19916;-82
2023/06/18 19:14:21;;;;;;;;;;;;;;;7.62;100.00;99038.88;6184362;23;20329;-82
2023/06/18 19:16:46;;;;;;;;;;;;;;;7.62;100.00;99041.50;6183068;23;19999;-83
2023/06/18 19:19:11;;;;;;;;;;;;;;;7.59;100.00;99050.41;6158165;23;19918;-82
2023/06/18 19:21:36;;;;;;;;;;;;;;;7.64;100.00;99055.47;6157425;23;19912;-82
2023/06/18 19:24:02;;;;;;;;;;;;;;;7.62;100.00;99063.44;6158338;23;19912;-82
2023/06/18 19:26:27;;;;;;;;;;;;;;;7.65;100.00;99059.84;6158086;23;19950;-82
2023/06/18 19:28:53;;;;;;;;;;;;;;;7.68;100.00;99061.50;6149409;23;19940;-82
2023/06/18 19:31:18;;;;;;;;;;;;;;;7.61;100.00;99064.41;6183056;23;19912;-82
2023/06/18 19:33:44;;;;;;;;;;;;;;;7.62;100.00;99062.59;6183646;23;20339;-82
2023/06/18 19:36:09;;;;;;;;;;;;;;;7.62;100.00;99070.50;6184243;23;19912;-82
2023/06/18 19:38:34;;;;;;;;;;;;;;;7.63;100.00;99080.16;6184061;23;19923;-83
2023/06/18 19:40:59;;;;;;;;;;;;;;;7.67;100.00;99081.72;6185890;23;19913;-82
2023/06/18 19:43:25;;;;;;;;;;;;;;;7.65;100.00;99075.66;6160104;23;19916;-82
2023/06/18 19:45:50;;;;;;;;;;;;;;;7.67;100.00;99076.44;6184961;23;20273;-83
2023/06/18 19:48:15;;;;;;;;;;;;;;;7.67;100.00;99073.81;6186952;23;20248;-82
2023/06/18 19:50:41;;;;;;;;;;;;;;;7.74;100.00;99088.47;6186513;23;19917;-83
2023/06/18 19:53:07;;;;;;;;;;;;;;;7.72;100.00;99095.59;6185799;23;19916;-82
2023/06/18 19:55:32;;;;;;;;;;;;;;;7.73;100.00;99102.56;6184082;23;20305;-82
2023/06/18 19:57:57;;;;;;;;;;;;;;;7.75;100.00;99091.94;6185957;23;19983;-82
2023/06/18 20:00:23;;;;;;;;;;;;;;;7.75;100.00;99092.78;6158477;23;19912;-83
2023/06/18 20:02:48;;;;;;;;;;;;;;;7.75;100.00;99098.06;6160077;23;19913;-82
2023/06/18 20:05:14;;;;;;;;;;;;;;;7.78;100.00;99105.00;6186513;23;19912;-82
2023/06/18 20:07:39;;;;;;;;;;;;;;;7.74;100.00;99108.72;6186226;23;19927;-82
2023/06/18 20:10:05;;;;;;;;;;;;;;;7.77;100.00;99106.78;6159954;23;19912;-82
2023/06/18 20:12:31;;;;;;;;;;;;;;;7.74;100.00;99112.19;6186374;23;19962;-82
2023/06/18 20:14:57;;;;;;;;;;;;;;;7.77;100.00;99112.06;6184442;23;20239;-82
2023/06/18 20:17:24;;;;;;;;;;;;;;;7.77;100.00;99109.44;6186216;23;19967;-81
2023/06/18 20:19:49;;;;;;;;;;;;;;;7.76;100.00;99099.81;6186309;23;20398;-82
2023/06/18 20:22:14;;;;;;;;;;;;;;;7.73;100.00;99107.84;6185077;23;19912;-82
2023/06/18 20:24:40;;;;;;;;;;;;;;;7.74;100.00;99122.75;6185187;23;20325;-82
2023/06/18 20:27:05;;;;;;;;;;;;;;;7.75;100.00;99115.69;6185620;23;19916;-82
2023/06/18 20:29:30;;;;;;;;;;;;;;;7.70;100.00;99117.66;6186056;23;20418;-82
2023/06/18 20:31:56;;;;;;;;;;;;;;;7.76;100.00;99123.53;6184352;23;19916;-82
2023/06/18 20:34:21;;;;;;;;;;;;;;;7.73;100.00;99128.09;6186470;23;19927;-82
2023/06/18 20:36:46;;;;;;;;;;;;;;;7.71;100.00;99125.50;6185927;23;19912;-82
2023/06/18 20:39:12;;;;;;;;;;;;;;;7.73;100.00;99122.81;6186108;23;20252;-82
2023/06/18 20:41:37;;;;;;;;;;;;;;;7.72;100.00;99127.25;6185986;23;20010;-82
2023/06/18 20:44:03;;;;;;;;;;;;;;;7.70;100.00;99130.84;6186289;23;19916;-82
2023/06/18 20:46:29;;;;;;;;;;;;;;;7.69;100.00;99121.22;6157736;23;19912;-82
2023/06/18 20:48:54;;;;;;;;;;;;;;;7.73;100.00;99125.44;6186122;23;20011;-82
2023/06/18 20:51:19;;;;;;;;;;;;;;;7.69;100.00;99137.91;6159117;23;19958;-82
2023/06/18 20:53:44;;;;;;;;;;;;;;;7.71;100.00;99135.22;6185917;23;19963;-82
2023/06/18 20:56:10;;;;;;;;;;;;;;;7.69;100.00;99143.19;6185925;23;19955;-82
2023/06/18 20:58:35;;;;;;;;;;;;;;;7.67;100.00;99134.47;6185864;23;19912;-82
2023/06/18 21:01:00;;;;;;;;;;;;;;;7.68;100.00;99146.72;6184381;23;20109;-82
2023/06/18 21:03:26;;;;;;;;;;;;;;;7.70;100.00;99149.31;6185639;23;19912;-82
2023/06/18 21:05:52;;;;;;;;;;;;;;;7.68;100.00;99145.88;6185785;23;20622;-82
2023/06/18 21:08:18;;;;;;;;;;;;;;;7.71;100.00;99157.16;6185566;23;19919;-82
2023/06/18 21:10:43;;;;;;;;;;;;;;;7.72;100.00;99147.47;6159310;23;19935;-82
2023/06/18 21:13:08;;;;;;;;;;;;;;;7.68;100.00;99157.28;6159518;23;19908;-82
2023/06/18 21:15:34;;;;;;;;;;;;;;;7.70;100.00;99159.84;6184060;23;20253;-83
2023/06/18 21:17:59;;;;;;;;;;;;;;;7.73;100.00;99155.31;6185691;23;19963;-82
2023/06/18 21:20:24;;;;;;;;;;;;;;;7.77;100.00;99166.56;6185748;23;19974;-82
2023/06/18 21:22:50;;;;;;;;;;;;;;;7.70;100.00;99165.13;6185798;23;19912;-82
2023/06/18 21:25:15;;;;;;;;;;;;;;;7.72;100.00;99165.91;6185834;23;20325;-82
2023/06/18 21:27:40;;;;;;;;;;;;;;;7.70;100.00;99167.75;6185307;23;19916;-82
2023/06/18 21:30:07;;;;;;;;;;;;;;;7.74;100.00;99162.31;6184045;23;19923;-83
2023/06/18 21:32:34;;;;;;;;;;;;;;;7.72;100.00;99161.53;6184086;23;19936;-82
2023/06/18 21:34:59;;;;;;;;;;;;;;;7.73;100.00;99160.56;6159831;23;20240;-82
2023/06/18 21:37:24;;;;;;;;;;;;;;;7.72;100.00;99161.53;6158956;23;19908;-82
2023/06/18 21:39:50;;;;;;;;;;;;;;;7.72;100.00;99153.63;6185849;23;19916;-82
2023/06/18 21:42:15;;;;;;;;;;;;;;;7.72;100.00;99156.25;6185399;23;19993;-82
2023/06/18 21:44:40;;;;;;;;;;;;;;;7.74;100.00;99167.59;6185376;23;20316;-82
2023/06/18 21:47:05;;;;;;;;;;;;;;;7.72;100.00;99169.44;6183880;23;20225;-82
2023/06/18 21:49:31;;;;;;;;;;;;;;;7.72;100.00;99161.53;6133745;23;19967;-82
2023/06/18 21:51:56;;;;;;;;;;;;;;;7.73;100.00;99165.00;6185489;23;19912;-82
2023/06/18 21:54:21;;;;;;;;;;;;;;;7.76;100.00;99165.72;6185188;23;19916;-82
2023/06/18 21:56:46;;;;;;;;;;;;;;;7.68;100.00;99167.81;6185327;23;19912;-83
2023/06/18 21:59:11;;;;;;;;;;;;;;;7.72;100.00;99169.44;6134325;23;19987;-82
2023/06/18 22:01:37;;;;;;;;;;;;;;;7.72;100.00;99169.44;6183684;23;19916;-82
2023/06/18 22:04:03;;;;;;;;;;;;;;;7.70;100.00;99173.88;6158888;23;19913;-82
2023/06/18 22:06:28;;;;;;;;;;;;;;;7.68;100.00;99167.81;6183543;23;20236;-82
2023/06/18 22:08:53;;;;;;;;;;;;;;;7.71;100.00;99166.84;6185395;23;19943;-82
2023/06/18 22:11:20;;;;;;;;;;;;;;;7.76;100.00;99170.16;6185411;23;20226;-82
2023/06/18 22:13:45;;;;;;;;;;;;;;;7.71;100.00;99175.63;6185170;23;19983;-82
2023/06/18 22:16:11;;;;;;;;;;;;;;;7.71;100.00;99231.00;6183680;23;20303;-82
2023/06/18 22:18:36;;;;;;;;;;;;;;;7.76;100.00;99289.69;6158623;23;19917;-82
2023/06/18 22:21:04;;;;;;;;;;;;;;;7.76;100.00;99292.31;6158558;23;19917;-81
2023/06/18 22:23:30;;;;;;;;;;;;;;;7.84;100.00;99283.25;6185032;23;19967;-84
2023/06/18 22:25:55;;;;;;;;;;;;;;;7.79;100.00;99275.53;6158712;23;19955;-82
2023/06/18 22:28:20;;;;;;;;;;;;;;;7.78;100.00;99264.09;6158571;23;19983;-82
2023/06/18 22:30:46;;;;;;;;;;;;;;;7.77;100.00;99266.81;6156662;23;19912;-83
2023/06/18 22:33:11;;;;;;;;;;;;;;;7.76;100.00;99260.69;6158369;23;19928;-82
2023/06/18 22:35:37;;;;;;;;;;;;;;;7.78;100.00;99256.19;6158458;23;19912;-82
2023/06/18 22:38:02;;;;;;;;;;;;;;;7.76;100.00;99249.28;6184855;23;19923;-82
2023/06/18 22:40:27;;;;;;;;;;;;;;;7.80;100.00;99228.00;6184814;23;20212;-82
2023/06/18 22:42:54;;;;;;;;;;;;;;;7.77;100.00;99216.69;6158758;23;19917;-82
2023/06/18 22:45:22;;;;;;;;;;;;;;;7.80;100.00;99201.63;6156913;23;19963;-81
2023/06/18 22:47:48;;;;;;;;;;;;;;;7.84;100.00;99206.78;6158329;23;19961;-82
2023/06/18 22:50:13;;;;;;;;;;;;;;;7.85;100.00;99209.34;6184651;23;19912;-81
2023/06/18 22:52:39;;;;;;;;;;;;;;;7.84;100.00;99202.34;6149417;23;19927;-82
2023/06/18 22:55:04;;;;;;;;;;;;;;;7.84;100.00;99191.78;6149218;23;19913;-82
2023/06/18 22:57:32;;;;;;;;;;;;;;;7.85;100.00;99190.00;6158081;23;20228;-81
2023/06/18 22:59:57;;;;;;;;;;;;;;;7.90;100.00;99186.28;6156813;23;19912;-82
2023/06/18 23:02:22;;;;;;;;;;;;;;;7.93;100.00;99182.63;6157336;23;20424;-83
2023/06/18 23:04:48;;;;;;;;;;;;;;;7.90;100.00;99177.50;6184864;23;19912;-82
2023/06/18 23:07:13;;;;;;;;;;;;;;;7.92;100.00;99180.94;6184428;23;19913;-83
2023/06/18 23:09:38;;;;;;;;;;;;;;;7.93;100.00;99182.63;6184534;23;19916;-83
2023/06/18 23:12:04;;;;;;;;;;;;;;;7.89;100.00;99175.78;6158226;23;19919;-82
2023/06/18 23:14:29;;;;;;;;;;;;;;;7.88;100.00;99168.78;6184795;23;19947;-82
2023/06/18 23:16:54;;;;;;;;;;;;;;;7.93;100.00;99170.31;6183064;23;20347;-82
2023/06/18 23:19:19;;;;;;;;;;;;;;;7.98;100.00;99178.03;6184779;23;19947;-82
2023/06/18 23:21:45;;;;;;;;;;;;;;;7.97;100.00;99169.25;6184214;23;20331;-82
2023/06/18 23:24:10;;;;;;;;;;;;;;;7.96;100.00;99162.28;6133763;23;19923;-83
2023/06/18 23:26:36;;;;;;;;;;;;;;;7.96;100.00;99170.19;6158183;23;19908;-82
2023/06/18 23:29:02;;;;;;;;;;;;;;;7.99;100.00;99177.09;6184514;23;19920;-82
2023/06/18 23:31:27;;;;;;;;;;;;;;;7.97;100.00;99169.25;6156558;23;19915;-82
2023/06/18 23:33:54;;;;;;;;;;;;;;;7.97;100.00;99177.16;6158134;23;19955;-82
2023/06/18 23:36:19;;;;;;;;;;;;;;;7.95;100.00;99171.09;6184568;23;20236;-82
2023/06/18 23:38:45;;;;;;;;;;;;;;;7.96;100.00;99170.19;6184492;23;19991;-82
2023/06/18 23:41:10;;;;;;;;;;;;;;;7.97;100.00;99173.69;6158223;23;19958;-82
2023/06/18 23:43:35;;;;;;;;;;;;;;;8.00;100.00;99176.19;6158195;23;19923;-81
